createdAt,value
2023-03-21T00:01:53.649Z,11.30
2023-03-21T00:04:22.089Z,11.10
2023-03-21T00:06:49.263Z,11.10
2023-03-21T00:09:16.460Z,11.10
2023-03-21T00:11:46.468Z,11.20
2023-03-21T00:14:20.091Z,11.30
2023-03-21T00:16:51.746Z,11.20
2023-03-21T00:19:20.948Z,11.10
2023-03-21T00:22:05.982Z,11.10
2023-03-21T00:24:34.499Z,11.10
2023-03-21T00:29:51.382Z,11.10
2023-03-21T00:32:20.988Z,11.00
2023-03-21T00:35:00.373Z,11.00
2023-03-21T00:37:32.048Z,11.10
2023-03-21T00:39:59.143Z,11.10
2023-03-21T00:42:26.450Z,11.20
2023-03-21T00:44:53.198Z,11.10
2023-03-21T00:47:20.489Z,11.20
2023-03-21T00:49:47.273Z,11.10
2023-03-21T00:52:22.177Z,11.10
2023-03-21T00:54:54.520Z,11.10
2023-03-21T00:57:29.334Z,11.10
2023-03-21T01:00:04.192Z,11.20
2023-03-21T01:02:31.152Z,11.10
2023-03-21T01:04:58.172Z,11.00
2023-03-21T01:07:25.294Z,11.00
2023-03-21T01:09:52.377Z,11.00
2023-03-21T01:12:19.386Z,11.10
2023-03-21T01:14:46.519Z,11.00
2023-03-21T01:17:13.433Z,11.10
2023-03-21T01:19:51.301Z,11.10
2023-03-21T01:22:18.717Z,11.10
2023-03-21T01:24:53.791Z,11.10
2023-03-21T01:27:22.300Z,11.10
2023-03-21T01:29:48.980Z,11.20
2023-03-21T01:32:16.757Z,11.20
2023-03-21T01:34:43.711Z,11.30
2023-03-21T01:37:10.721Z,11.20
2023-03-21T01:39:37.788Z,11.10
2023-03-21T01:42:04.958Z,11.20
2023-03-21T01:44:31.966Z,11.10
2023-03-21T01:47:10.552Z,11.20
2023-03-21T01:49:46.138Z,11.20
2023-03-21T01:52:33.295Z,11.20
2023-03-21T01:55:03.780Z,11.20
2023-03-21T01:57:49.410Z,11.30
2023-03-21T02:00:29.400Z,11.30
2023-03-21T02:03:11.176Z,11.30
2023-03-21T02:05:42.630Z,11.30
2023-03-21T02:08:10.469Z,11.30
2023-03-21T02:10:37.518Z,11.40
2023-03-21T02:13:09.416Z,11.30
2023-03-21T02:15:38.988Z,11.30
2023-03-21T02:18:09.157Z,11.30
2023-03-21T02:20:45.384Z,11.30
2023-03-21T02:23:48.777Z,11.30
2023-03-21T02:26:42.466Z,11.30
2023-03-21T02:29:37.393Z,11.20
2023-03-21T02:32:28.334Z,11.20
2023-03-21T02:35:28.001Z,11.20
2023-03-21T02:38:10.877Z,11.20
2023-03-21T02:40:40.724Z,11.20
2023-03-21T02:43:23.115Z,11.20
2023-03-21T02:46:14.587Z,11.20
2023-03-21T02:49:10.500Z,11.20
2023-03-21T02:51:39.408Z,11.20
2023-03-21T02:54:45.280Z,11.20
2023-03-21T02:57:03.609Z,11.10
2023-03-21T02:59:32.784Z,11.20
2023-03-21T03:02:01.139Z,11.10
2023-03-21T03:04:28.657Z,11.10
2023-03-21T03:06:58.649Z,11.00
2023-03-21T03:09:51.873Z,11.10
2023-03-21T03:12:37.619Z,11.20
2023-03-21T03:15:07.292Z,11.20
2023-03-21T03:17:42.867Z,11.20
2023-03-21T03:20:30.974Z,11.20
2023-03-21T03:23:09.561Z,11.20
2023-03-21T03:25:43.957Z,11.20
2023-03-21T03:28:15.602Z,11.10
2023-03-21T03:30:53.951Z,11.30
2023-03-21T03:33:27.034Z,11.40
2023-03-21T03:36:04.984Z,11.30
2023-03-21T03:38:35.443Z,11.30
2023-03-21T03:41:11.052Z,11.30
2023-03-21T03:43:48.742Z,11.20
2023-03-21T03:46:39.520Z,11.20
2023-03-21T03:49:15.438Z,11.30
2023-03-21T03:51:57.835Z,11.20
2023-03-21T03:54:38.323Z,11.20
2023-03-21T03:57:06.838Z,11.20
2023-03-21T03:59:38.101Z,11.30
2023-03-21T04:02:05.862Z,11.30
2023-03-21T04:04:34.043Z,11.20
2023-03-21T04:07:03.472Z,11.20
2023-03-21T04:09:43.203Z,11.20
2023-03-21T04:12:12.933Z,11.20
2023-03-21T04:14:45.834Z,11.30
2023-03-21T04:17:14.384Z,11.30
2023-03-21T04:19:41.637Z,11.30
2023-03-21T04:22:08.905Z,11.30
2023-03-21T04:24:37.499Z,11.20
2023-03-21T04:27:05.953Z,11.20
2023-03-21T04:29:33.366Z,11.30
2023-03-21T04:32:01.392Z,11.30
2023-03-21T04:34:28.601Z,11.30
2023-03-21T04:36:56.379Z,11.30
2023-03-21T04:39:24.699Z,11.30
2023-03-21T04:41:51.897Z,11.30
2023-03-21T04:44:19.152Z,11.30
2023-03-21T04:46:45.961Z,11.30
2023-03-21T04:49:13.362Z,11.30
2023-03-21T04:51:41.660Z,11.30
2023-03-21T04:56:36.103Z,11.30
2023-03-21T04:59:08.157Z,11.30
2023-03-21T05:01:34.860Z,11.30
2023-03-21T05:04:03.457Z,11.40
2023-03-21T05:06:32.123Z,11.40
2023-03-21T05:09:00.501Z,11.40
2023-03-21T05:11:30.713Z,11.30
2023-03-21T05:13:59.036Z,11.30
2023-03-21T05:16:30.573Z,11.30
2023-03-21T05:18:59.231Z,11.20
2023-03-21T05:21:29.568Z,11.20
2023-03-21T05:23:58.375Z,11.10
2023-03-21T05:26:25.513Z,11.10
2023-03-21T05:28:52.536Z,11.10
2023-03-21T05:31:20.828Z,10.90
2023-03-21T05:33:48.478Z,11.00
2023-03-21T05:36:15.988Z,11.00
2023-03-21T05:38:45.699Z,10.90
2023-03-21T05:41:18.822Z,10.90
2023-03-21T05:43:46.443Z,10.90
2023-03-21T05:46:13.792Z,11.00
2023-03-21T05:48:40.750Z,11.00
2023-03-21T05:51:07.824Z,11.00
2023-03-21T05:53:34.823Z,10.90
2023-03-21T05:56:01.926Z,10.70
2023-03-21T05:58:28.794Z,10.60
2023-03-21T06:00:55.557Z,10.60
2023-03-21T06:03:22.635Z,10.60
2023-03-21T06:05:49.547Z,10.60
2023-03-21T06:08:16.619Z,10.50
2023-03-21T06:10:43.654Z,10.50
2023-03-21T06:13:10.706Z,10.50
2023-03-21T06:15:38.072Z,10.50
2023-03-21T06:18:05.240Z,10.50
2023-03-21T06:20:32.366Z,10.50
2023-03-21T06:22:59.310Z,10.50
2023-03-21T06:25:26.367Z,10.50
2023-03-21T06:27:53.407Z,10.50
2023-03-21T06:30:21.316Z,10.40
2023-03-21T06:32:48.375Z,10.40
2023-03-21T06:35:16.580Z,10.40
2023-03-21T06:37:45.448Z,10.30
2023-03-21T06:40:13.758Z,10.40
2023-03-21T06:42:40.617Z,10.40
2023-03-21T06:45:08.194Z,10.40
2023-03-21T06:47:35.272Z,10.40
2023-03-21T06:50:02.558Z,10.40
2023-03-21T06:52:29.560Z,10.40
2023-03-21T06:54:56.689Z,10.40
2023-03-21T06:57:23.721Z,10.50
2023-03-21T06:59:50.631Z,10.60
2023-03-21T07:02:17.416Z,10.70
2023-03-21T07:04:44.693Z,10.70
2023-03-21T07:07:11.622Z,10.80
2023-03-21T07:09:41.108Z,10.80
2023-03-21T07:12:08.229Z,10.80
2023-03-21T07:14:37.162Z,10.90
2023-03-21T07:17:04.208Z,10.90
2023-03-21T07:19:31.258Z,10.90
2023-03-21T07:21:58.345Z,10.90
2023-03-21T07:24:25.297Z,10.90
2023-03-21T07:26:52.327Z,10.90
2023-03-21T07:29:21.525Z,10.90
2023-03-21T07:31:49.999Z,10.90
2023-03-21T07:34:19.006Z,10.80
2023-03-21T07:36:46.049Z,10.80
2023-03-21T07:39:12.935Z,10.80
2023-03-21T07:41:39.988Z,10.80
2023-03-21T07:46:33.803Z,10.80
2023-03-21T07:49:02.065Z,10.90
2023-03-21T07:51:29.057Z,10.90
2023-03-21T07:53:56.009Z,10.90
2023-03-21T07:56:23.230Z,11.00
2023-03-21T07:58:50.169Z,11.10
2023-03-21T08:01:16.871Z,11.10
2023-03-21T08:03:44.249Z,11.10
2023-03-21T08:06:12.244Z,11.00
2023-03-21T08:08:39.340Z,11.00
2023-03-21T08:11:07.645Z,11.00
2023-03-21T08:13:34.494Z,11.00
2023-03-21T08:16:01.631Z,11.00
2023-03-21T08:18:28.658Z,11.00
2023-03-21T08:21:01.556Z,11.10
2023-03-21T08:23:29.273Z,11.10
2023-03-21T08:25:58.445Z,11.20
2023-03-21T08:28:27.879Z,11.30
2023-03-21T08:30:54.890Z,11.40
2023-03-21T08:33:22.012Z,11.50
2023-03-21T08:35:49.338Z,11.60
2023-03-21T08:38:17.007Z,11.70
2023-03-21T08:40:43.742Z,11.70
2023-03-21T08:43:10.561Z,11.70
2023-03-21T08:45:37.862Z,11.80
2023-03-21T08:48:05.394Z,11.90
2023-03-21T08:50:32.561Z,11.80
2023-03-21T08:53:00.389Z,11.80
2023-03-21T08:55:27.516Z,11.90
2023-03-21T08:57:54.933Z,12.00
2023-03-21T09:00:22.583Z,12.10
2023-03-21T09:02:51.998Z,12.20
2023-03-21T09:05:21.130Z,12.20
2023-03-21T09:07:49.696Z,12.00
2023-03-21T09:10:22.812Z,12.10
2023-03-21T09:12:52.404Z,12.10
2023-03-21T09:15:21.639Z,12.20
2023-03-21T09:17:52.855Z,12.20
2023-03-21T09:20:22.679Z,12.20
2023-03-21T09:22:53.769Z,12.30
2023-03-21T09:25:21.602Z,12.30
2023-03-21T09:27:48.794Z,12.40
2023-03-21T09:30:18.529Z,12.60
2023-03-21T09:32:48.539Z,12.70
2023-03-21T09:35:19.084Z,12.70
2023-03-21T09:37:47.770Z,12.80
2023-03-21T09:40:31.995Z,12.80
2023-03-21T09:43:38.140Z,12.90
2023-03-21T09:46:12.696Z,12.80
2023-03-21T09:48:58.537Z,12.70
2023-03-21T09:51:39.729Z,12.80
2023-03-21T09:54:29.051Z,12.70
2023-03-21T09:57:01.124Z,12.60
2023-03-21T09:59:38.234Z,12.70
2023-03-21T10:02:32.218Z,12.80
2023-03-21T10:05:00.709Z,13.00
2023-03-21T10:07:30.884Z,13.20
2023-03-21T10:10:00.732Z,13.40
2023-03-21T10:12:30.606Z,13.60
2023-03-21T10:15:01.532Z,13.90
2023-03-21T10:17:44.725Z,14.10
2023-03-21T10:20:24.458Z,14.30
2023-03-21T10:22:53.012Z,14.80
2023-03-21T10:25:24.607Z,15.00
2023-03-21T10:27:52.690Z,15.20
2023-03-21T10:30:44.096Z,15.80
2023-03-21T10:33:22.676Z,16.10
2023-03-21T10:36:11.755Z,16.60
2023-03-21T10:38:47.782Z,16.40
2023-03-21T10:41:15.030Z,16.20
2023-03-21T10:43:44.811Z,16.20
2023-03-21T10:46:23.955Z,15.90
2023-03-21T10:48:52.815Z,15.60
2023-03-21T10:51:22.255Z,16.30
2023-03-21T10:54:01.481Z,16.80
2023-03-21T10:56:32.900Z,17.00
2023-03-21T10:59:01.264Z,16.30
2023-03-21T11:01:41.209Z,16.30
2023-03-21T11:04:16.370Z,16.50
2023-03-21T11:06:56.969Z,16.60
2023-03-21T11:09:26.694Z,16.40
2023-03-21T11:12:02.691Z,17.10
2023-03-21T11:14:37.595Z,18.10
2023-03-21T11:17:34.577Z,18.10
2023-03-21T11:20:05.682Z,17.30
2023-03-21T11:22:43.423Z,17.20
2023-03-21T11:25:41.020Z,17.30
2023-03-21T11:28:20.958Z,16.80
2023-03-21T11:30:59.243Z,16.50
2023-03-21T11:33:31.449Z,16.40
2023-03-21T11:36:18.972Z,16.30
2023-03-21T11:38:57.747Z,16.40
2023-03-21T11:41:33.956Z,16.50
2023-03-21T11:44:02.741Z,16.30
2023-03-21T11:46:31.863Z,16.10
2023-03-21T11:49:00.353Z,16.00
2023-03-21T11:51:33.072Z,15.80
2023-03-21T11:54:25.951Z,15.70
2023-03-21T11:57:00.918Z,15.30
2023-03-21T11:59:33.539Z,15.10
2023-03-21T12:02:09.249Z,15.10
2023-03-21T12:04:54.440Z,15.20
2023-03-21T12:07:48.578Z,15.10
2023-03-21T12:10:51.693Z,15.10
2023-03-21T12:13:38.821Z,15.30
2023-03-21T12:16:25.077Z,15.40
2023-03-21T12:19:09.296Z,15.40
2023-03-21T12:21:52.451Z,15.60
2023-03-21T12:24:40.214Z,15.60
2023-03-21T12:27:25.963Z,15.60
2023-03-21T12:30:33.304Z,15.60
2023-03-21T12:33:15.524Z,15.90
2023-03-21T12:36:14.267Z,16.10
2023-03-21T12:38:49.066Z,16.10
2023-03-21T12:41:25.519Z,15.90
2023-03-21T12:44:17.022Z,15.60
2023-03-21T12:46:55.665Z,15.50
2023-03-21T12:49:49.963Z,15.20
2023-03-21T12:52:57.710Z,15.40
2023-03-21T12:55:30.732Z,15.60
2023-03-21T12:58:11.481Z,15.80
2023-03-21T13:00:49.249Z,16.10
2023-03-21T13:03:27.722Z,16.80
2023-03-21T13:06:02.721Z,16.60
2023-03-21T13:08:36.677Z,16.50
2023-03-21T13:11:05.344Z,16.10
2023-03-21T13:13:42.368Z,16.00
2023-03-21T13:16:29.181Z,16.00
2023-03-21T13:19:31.725Z,16.00
2023-03-21T13:22:12.242Z,15.90
2023-03-21T13:24:48.108Z,15.80
2023-03-21T13:27:24.791Z,15.70
2023-03-21T13:30:17.838Z,15.50
2023-03-21T13:32:48.486Z,15.40
2023-03-21T13:35:21.414Z,15.50
2023-03-21T13:38:02.992Z,15.30
2023-03-21T13:40:52.196Z,15.20
2023-03-21T13:43:40.359Z,14.90
2023-03-21T13:46:52.273Z,14.80
2023-03-21T13:49:33.102Z,14.80
2023-03-21T13:52:02.490Z,14.70
2023-03-21T13:54:38.867Z,14.60
2023-03-21T13:57:07.083Z,14.70
2023-03-21T13:59:43.608Z,14.40
2023-03-21T14:02:19.145Z,14.60
2023-03-21T14:05:04.148Z,14.50
2023-03-21T14:07:34.931Z,14.70
2023-03-21T14:10:07.321Z,14.60
2023-03-21T14:12:42.472Z,14.50
2023-03-21T14:15:20.274Z,14.50
2023-03-21T14:18:10.865Z,14.50
2023-03-21T14:20:56.675Z,14.60
2023-03-21T14:23:24.693Z,14.80
2023-03-21T14:25:52.614Z,14.70
2023-03-21T14:28:29.921Z,15.00
2023-03-21T14:31:00.516Z,15.10
2023-03-21T14:33:39.257Z,15.20
2023-03-21T14:36:19.016Z,15.00
2023-03-21T14:38:55.752Z,14.80
2023-03-21T14:41:26.311Z,14.80
2023-03-21T14:44:22.286Z,14.90
2023-03-21T14:46:49.453Z,15.00
2023-03-21T14:49:21.538Z,15.40
2023-03-21T14:51:50.670Z,15.50
2023-03-21T14:54:18.500Z,15.30
2023-03-21T14:56:48.406Z,15.10
2023-03-21T14:59:18.951Z,14.70
2023-03-21T15:01:49.038Z,14.70
2023-03-21T15:04:17.581Z,14.50
2023-03-21T15:06:56.022Z,14.50
2023-03-21T15:09:27.145Z,14.60
2023-03-21T15:11:56.272Z,14.60
2023-03-21T15:14:32.936Z,14.40
2023-03-21T15:17:03.967Z,14.20
2023-03-21T15:19:37.480Z,14.00
2023-03-21T15:22:28.198Z,13.80
2023-03-21T15:24:59.936Z,13.60
2023-03-21T15:27:38.730Z,13.60
2023-03-21T15:30:07.900Z,13.80
2023-03-21T15:32:36.981Z,14.00
2023-03-21T15:35:08.488Z,14.10
2023-03-21T15:37:37.338Z,14.20
2023-03-21T15:40:16.606Z,14.20
2023-03-21T15:42:43.879Z,14.20
2023-03-21T15:45:20.019Z,14.30
2023-03-21T15:47:50.073Z,14.40
2023-03-21T15:50:36.588Z,14.40
2023-03-21T15:53:07.624Z,14.30
2023-03-21T15:55:52.604Z,14.20
2023-03-21T15:58:34.406Z,14.20
2023-03-21T16:01:10.906Z,14.20
2023-03-21T16:03:41.626Z,14.20
2023-03-21T16:06:22.020Z,14.20
2023-03-21T16:09:02.957Z,14.20
2023-03-21T16:11:48.332Z,14.40
2023-03-21T16:14:15.167Z,14.30
2023-03-21T16:16:42.675Z,14.30
2023-03-21T16:19:10.891Z,14.40
2023-03-21T16:21:38.461Z,14.40
2023-03-21T16:24:09.115Z,14.40
2023-03-21T16:26:41.662Z,14.30
2023-03-21T16:29:12.082Z,14.30
2023-03-21T16:31:39.381Z,14.10
2023-03-21T16:34:07.155Z,14.10
2023-03-21T16:36:38.249Z,14.00
2023-03-21T16:39:15.876Z,14.00
2023-03-21T16:41:42.999Z,13.90
2023-03-21T16:44:10.594Z,13.80
2023-03-21T16:46:37.785Z,13.70
2023-03-21T16:49:05.612Z,13.60
2023-03-21T16:51:35.740Z,13.50
2023-03-21T16:54:03.117Z,13.60
2023-03-21T16:56:42.832Z,13.70
2023-03-21T16:59:11.795Z,13.80
2023-03-21T17:01:40.346Z,13.90
2023-03-21T17:04:08.098Z,13.90
2023-03-21T17:06:47.470Z,13.90
2023-03-21T17:09:16.489Z,14.00
2023-03-21T17:11:44.279Z,14.00
2023-03-21T17:14:13.029Z,14.00
2023-03-21T17:16:42.599Z,13.90
2023-03-21T17:19:23.910Z,13.90
2023-03-21T17:21:51.118Z,14.20
2023-03-21T17:24:18.089Z,14.20
2023-03-21T17:26:45.993Z,14.00
2023-03-21T17:29:14.256Z,14.00
2023-03-21T17:31:42.386Z,13.90
2023-03-21T17:34:11.048Z,13.90
2023-03-21T17:36:40.617Z,13.80
2023-03-21T17:39:14.105Z,13.80
2023-03-21T17:41:41.432Z,13.80
2023-03-21T17:44:08.376Z,13.80
2023-03-21T17:46:37.227Z,13.70
2023-03-21T17:49:05.605Z,13.70
2023-03-21T17:51:33.205Z,13.60
2023-03-21T17:54:00.790Z,13.60
2023-03-21T17:56:31.017Z,13.50
2023-03-21T17:59:00.436Z,13.60
2023-03-21T18:01:28.365Z,13.60
2023-03-21T18:03:56.306Z,13.60
2023-03-21T18:06:26.452Z,13.60
2023-03-21T18:08:54.844Z,13.60
2023-03-21T18:11:24.051Z,13.60
2023-03-21T18:13:59.421Z,13.60
2023-03-21T18:16:34.104Z,13.50
2023-03-21T18:19:01.016Z,13.50
2023-03-21T18:21:32.191Z,13.60
2023-03-21T18:24:00.258Z,13.60
2023-03-21T18:26:27.389Z,13.50
2023-03-21T18:29:43.913Z,13.60
2023-03-21T18:31:42.703Z,13.60
2023-03-21T18:34:10.976Z,13.50
2023-03-21T18:36:39.209Z,13.40
2023-03-21T18:39:06.756Z,13.50
2023-03-21T18:41:34.162Z,13.40
2023-03-21T18:44:05.332Z,13.40
2023-03-21T18:46:41.731Z,13.30
2023-03-21T18:49:51.986Z,13.30
2023-03-21T18:51:55.818Z,13.30
2023-03-21T18:54:23.495Z,13.50
2023-03-21T18:57:34.224Z,13.70
2023-03-21T18:59:39.340Z,13.70
2023-03-21T19:02:07.109Z,13.80
2023-03-21T19:04:34.204Z,13.70
2023-03-21T19:07:01.446Z,13.60
2023-03-21T19:09:31.925Z,13.40
2023-03-21T19:12:03.259Z,13.30
2023-03-21T19:14:30.486Z,13.10
2023-03-21T19:19:45.913Z,13.30
2023-03-21T19:22:12.851Z,13.30
2023-03-21T19:24:41.365Z,13.30
2023-03-21T19:27:10.401Z,13.50
2023-03-21T19:29:37.166Z,13.50
2023-03-21T19:32:05.700Z,13.40
2023-03-21T19:34:32.545Z,13.30
2023-03-21T19:37:00.632Z,13.30
2023-03-21T19:39:27.654Z,13.30
2023-03-21T19:42:08.971Z,13.30
2023-03-21T19:44:41.623Z,13.20
2023-03-21T19:47:08.948Z,13.10
2023-03-21T19:50:14.851Z,13.20
2023-03-21T19:52:22.425Z,13.30
2023-03-21T19:54:49.513Z,13.30
2023-03-21T19:57:16.690Z,13.20
2023-03-21T19:59:43.455Z,13.10
2023-03-21T20:02:33.862Z,13.10
2023-03-21T20:04:59.321Z,12.90
2023-03-21T20:07:27.771Z,12.90
2023-03-21T20:09:57.214Z,12.80
2023-03-21T20:12:24.209Z,12.90
2023-03-21T20:14:57.065Z,12.90
2023-03-21T20:17:28.563Z,13.00
2023-03-21T20:19:58.021Z,13.00
2023-03-21T20:22:49.554Z,12.80
2023-03-21T20:25:15.420Z,12.70
2023-03-21T20:27:43.689Z,12.50
2023-03-21T20:30:14.433Z,12.50
2023-03-21T20:32:43.781Z,12.50
2023-03-21T20:35:20.164Z,12.50
2023-03-21T20:37:54.472Z,12.50
2023-03-21T20:40:21.625Z,12.60
2023-03-21T20:42:50.317Z,12.60
2023-03-21T20:45:17.734Z,12.60
2023-03-21T20:47:44.816Z,12.60
2023-03-21T20:50:13.945Z,12.70
2023-03-21T20:53:04.481Z,12.60
2023-03-21T20:55:34.262Z,12.80
2023-03-21T20:58:02.187Z,12.80
2023-03-21T21:00:29.457Z,12.90
2023-03-21T21:02:57.808Z,12.90
2023-03-21T21:05:30.130Z,12.80
2023-03-21T21:08:01.330Z,12.80
2023-03-21T21:10:28.832Z,13.00
2023-03-21T21:12:55.777Z,13.00
2023-03-21T21:15:22.797Z,12.90
2023-03-21T21:18:05.481Z,12.80
2023-03-21T21:20:33.842Z,12.80
2023-03-21T21:23:01.076Z,12.60
2023-03-21T21:25:29.263Z,12.50
2023-03-21T21:27:56.414Z,12.40
2023-03-21T21:30:23.728Z,12.30
2023-03-21T21:32:50.583Z,12.30
2023-03-21T21:35:19.484Z,12.30
2023-03-21T21:37:47.530Z,12.20
2023-03-21T21:40:18.240Z,12.30
2023-03-21T21:42:45.472Z,12.20
2023-03-21T21:45:13.624Z,12.30
2023-03-21T21:47:41.137Z,12.30
2023-03-21T21:50:08.959Z,12.30
2023-03-21T21:52:37.351Z,12.30
2023-03-21T21:55:06.378Z,12.20
2023-03-21T21:57:34.573Z,12.20
2023-03-21T22:00:06.117Z,12.20
2023-03-21T22:02:33.296Z,12.20
2023-03-21T22:05:01.655Z,12.20
2023-03-21T22:07:28.693Z,12.10
2023-03-21T22:09:56.090Z,12.00
2023-03-21T22:12:24.297Z,12.00
2023-03-21T22:14:51.387Z,12.00
2023-03-21T22:17:18.332Z,12.10
2023-03-21T22:19:58.901Z,12.10
2023-03-21T22:22:31.896Z,12.10
2023-03-21T22:24:58.797Z,12.10
2023-03-21T22:27:25.766Z,12.30
2023-03-21T22:29:52.480Z,12.30
2023-03-21T22:32:20.438Z,12.30
2023-03-21T22:34:47.425Z,12.20
2023-03-21T22:37:14.388Z,12.20
2023-03-21T22:39:41.488Z,12.10
2023-03-21T22:42:08.448Z,12.00
2023-03-21T22:44:35.680Z,12.00
2023-03-21T22:47:07.079Z,11.80
2023-03-21T22:49:34.447Z,11.80
2023-03-21T22:52:03.333Z,11.80
2023-03-21T22:54:32.272Z,11.70
2023-03-21T22:57:00.239Z,11.70
2023-03-21T22:59:27.772Z,11.70
2023-03-21T23:01:54.796Z,11.70
2023-03-21T23:04:21.785Z,11.70
2023-03-21T23:06:48.937Z,11.60
2023-03-21T23:09:17.537Z,11.60
2023-03-21T23:11:46.210Z,11.70
2023-03-21T23:14:15.218Z,11.70
2023-03-21T23:16:42.771Z,11.60
2023-03-21T23:19:10.416Z,11.50
2023-03-21T23:21:38.439Z,11.40
2023-03-21T23:24:07.504Z,11.40
2023-03-21T23:26:34.780Z,11.40
2023-03-21T23:29:01.589Z,11.50
2023-03-21T23:31:29.076Z,11.50
2023-03-21T23:33:58.558Z,11.50
2023-03-21T23:36:26.119Z,11.50
2023-03-21T23:38:53.269Z,11.50
2023-03-21T23:41:22.740Z,11.50
2023-03-21T23:43:50.296Z,11.50
2023-03-21T23:46:18.450Z,11.50
2023-03-21T23:48:46.367Z,11.40
2023-03-21T23:51:16.345Z,11.40
2023-03-21T23:53:44.397Z,11.40
2023-03-21T23:56:20.539Z,11.40
2023-03-21T23:58:49.786Z,11.40
